Time;durP1;ratioP1;P1;durP2;ratioP2;P2;SDS_P1;SDS_P2;PMS_P1;PMS_P2;Temp;Humidity;BMP_temperature;BMP_pressure;BME280_temperature;BME280_humidity;BME280_pressure;Samples;Min_cycle;Max_cycle;Signal;HPM_P1;HPM_P2
2022/03/04 00:00:03;;;;;;;;;;;;;;;;;;2073449;28;19914;-84
2022/03/04 00:01:03;;;;;;;;;;;;;;;;;;2073235;28;19972;-85
2022/03/04 00:02:05;;;;;;;;;;;;;;;;;;2073503;28;19964;-85
2022/03/04 00:03:05;;;;;;;;;;;;;;;;;;2073252;28;19920;-84
2022/03/04 00:04:09;;;;;;;;;;;;;;;;;;2073468;28;19924;-83
2022/03/04 00:05:09;;;;;;;;;;;;;;;;;;2082022;28;19974;-83
2022/03/04 00:06:10;;;;;;;;;;;;;;;;;;2081953;28;20332;-83
2022/03/04 00:07:11;;;;;;;;;;;;;;;;;;2081923;28;19913;-84
2022/03/04 00:08:11;;;;;;;;;;;;;;;;;;2081873;28;20370;-85
2022/03/04 00:09:11;;;;;;;;;;;;;;;;;;2073142;28;19914;-85
2022/03/04 00:10:11;;;;;;;;;;;;;;;;;;2065211;28;19922;-85
2022/03/04 00:11:12;;;;;;;;;;;;;;;;;;2073206;28;19952;-85
2022/03/04 00:12:12;;;;;;;;;;;;;;;;;;2072553;28;19914;-84
2022/03/04 00:13:13;;;;;;;;;;;;;;;;;;2065155;28;19956;-85
2022/03/04 00:14:13;;;;;;;;;;;;;;;;;;2073246;28;19913;-85
2022/03/04 00:15:14;;;;;;;;;;;;;;;;;;2073279;28;19960;-84
2022/03/04 00:16:14;;;;;;;;;;;;;;;;;;2073304;28;20294;-84
2022/03/04 00:17:14;;;;;;;;;;;;;;;;;;2081777;28;19917;-83
2022/03/04 00:18:15;;;;;;;;;;;;;;;;;;2081943;28;19913;-84
2022/03/04 00:19:15;;;;;;;;;;;;;;;;;;2081833;28;19912;-83
2022/03/04 00:20:15;;;;;;;;;;;;;;;;;;2081977;28;19953;-85
2022/03/04 00:21:17;;;;;;;;;;;;;;;;;;2081917;28;19913;-84
2022/03/04 00:22:17;;;;;;;;;;;;;;;;;;2081866;28;20371;-84
2022/03/04 00:23:18;;;;;;;;;;;;;;;;;;2073149;28;19913;-84
2022/03/04 00:24:22;;;;;;;;;;;;;;;;;;2065024;28;20012;-84
2022/03/04 00:25:22;;;;;;;;;;;;;;;;;;2072981;28;20438;-85
2022/03/04 00:26:23;;;;;;;;;;;;;;;;;;2073234;28;19917;-84
2022/03/04 00:27:23;;;;;;;;;;;;;;;;;;2081632;28;19917;-85
2022/03/04 00:28:23;;;;;;;;;;;;;;;;;;2073091;28;20397;-85
2022/03/04 00:29:26;;;;;;;;;;;;;;;;;;2073183;28;20377;-84
2022/03/04 00:30:26;;;;;;;;;;;;;;;;;;2081870;28;20284;-85
2022/03/04 00:31:27;;;;;;;;;;;;;;;;;;2081817;28;19913;-84
2022/03/04 00:32:27;;;;;;;;;;;;;;;;;;2081836;28;20306;-84
2022/03/04 00:33:28;;;;;;;;;;;;;;;;;;2073143;28;19913;-84
2022/03/04 00:34:28;;;;;;;;;;;;;;;;;;2073164;28;19964;-84
2022/03/04 00:35:28;;;;;;;;;;;;;;;;;;2073021;28;20038;-84
2022/03/04 00:36:29;;;;;;;;;;;;;;;;;;2064918;28;19924;-84
2022/03/04 00:37:31;;;;;;;;;;;;;;;;;;2073339;28;19987;-84
2022/03/04 00:38:31;;;;;;;;;;;;;;;;;;2081865;28;19921;-84
2022/03/04 00:39:32;;;;;;;;;;;;;;;;;;2081991;28;19920;-85
2022/03/04 00:40:32;;;;;;;;;;;;;;;;;;2081692;28;20346;-84
2022/03/04 00:41:32;;;;;;;;;;;;;;;;;;2073021;28;19917;-84
2022/03/04 00:42:35;;;;;;;;;;;;;;;;;;2064961;28;20093;-84
2022/03/04 00:43:36;;;;;;;;;;;;;;;;;;2073614;28;20294;-84
2022/03/04 00:44:36;;;;;;;;;;;;;;;;;;2081727;28;19987;-84
2022/03/04 00:45:36;;;;;;;;;;;;;;;;;;2072943;28;19924;-84
2022/03/04 00:46:37;;;;;;;;;;;;;;;;;;2073011;28;19983;-84
2022/03/04 00:47:37;;;;;;;;;;;;;;;;;;2081722;28;19914;-84
2022/03/04 00:48:38;;;;;;;;;;;;;;;;;;2072978;28;19913;-84
2022/03/04 00:49:38;;;;;;;;;;;;;;;;;;2073262;28;19999;-84
2022/03/04 00:50:38;;;;;;;;;;;;;;;;;;2081669;28;19924;-84
2022/03/04 00:51:39;;;;;;;;;;;;;;;;;;2081723;28;20004;-84
2022/03/04 00:52:39;;;;;;;;;;;;;;;;;;2081671;28;20305;-84
2022/03/04 00:53:40;;;;;;;;;;;;;;;;;;2081638;28;19974;-83
2022/03/04 00:54:41;;;;;;;;;;;;;;;;;;2081676;28;19982;-84
2022/03/04 00:55:41;;;;;;;;;;;;;;;;;;2081716;28;19913;-84
2022/03/04 00:56:44;;;;;;;;;;;;;;;;;;2081567;28;19921;-83
2022/03/04 00:57:44;;;;;;;;;;;;;;;;;;2081052;28;19982;-84
2022/03/04 00:58:44;;;;;;;;;;;;;;;;;;2081275;28;19920;-83
2022/03/04 00:59:45;;;;;;;;;;;;;;;;;;2081753;28;19936;-84
2022/03/04 01:00:47;;;;;;;;;;;;;;;;;;2081617;28;19913;-84
2022/03/04 01:01:48;;;;;;;;;;;;;;;;;;2081625;28;19924;-82
2022/03/04 01:02:51;;;;;;;;;;;;;;;;;;2081879;28;19924;-81
2022/03/04 01:03:51;;;;;;;;;;;;;;;;;;2082091;28;19913;-83
2022/03/04 01:04:52;;;;;;;;;;;;;;;;;;2082498;28;20354;-83
2022/03/04 01:05:52;;;;;;;;;;;;;;;;;;2082099;28;20350;-83
2022/03/04 01:06:52;;;;;;;;;;;;;;;;;;2073109;28;19976;-84
2022/03/04 01:07:53;;;;;;;;;;;;;;;;;;2072841;28;19921;-84
2022/03/04 01:08:53;;;;;;;;;;;;;;;;;;2081510;28;19914;-84
2022/03/04 01:09:53;;;;;;;;;;;;;;;;;;2081523;28;20051;-84
2022/03/04 01:10:54;;;;;;;;;;;;;;;;;;2081716;28;19971;-84
2022/03/04 01:11:58;;;;;;;;;;;;;;;;;;2081597;28;19913;-84
2022/03/04 01:12:58;;;;;;;;;;;;;;;;;;2072993;28;20270;-84
2022/03/04 01:14:01;;;;;;;;;;;;;;;;;;2073100;28;19956;-83
2022/03/04 01:15:02;;;;;;;;;;;;;;;;;;2081721;28;19978;-84
2022/03/04 01:16:02;;;;;;;;;;;;;;;;;;2081610;28;19917;-83
2022/03/04 01:17:03;;;;;;;;;;;;;;;;;;2081396;28;20418;-84
2022/03/04 01:18:03;;;;;;;;;;;;;;;;;;2072865;28;19913;-83
2022/03/04 01:19:04;;;;;;;;;;;;;;;;;;2064766;28;19918;-83
2022/03/04 01:20:08;;;;;;;;;;;;;;;;;;2072999;28;20170;-83
2022/03/04 01:21:08;;;;;;;;;;;;;;;;;;2081588;28;19915;-83
2022/03/04 01:22:09;;;;;;;;;;;;;;;;;;2081407;28;19924;-83
2022/03/04 01:23:09;;;;;;;;;;;;;;;;;;2081551;28;19928;-83
2022/03/04 01:24:10;;;;;;;;;;;;;;;;;;2081526;28;19917;-83
2022/03/04 01:25:12;;;;;;;;;;;;;;;;;;2081508;28;19916;-83
2022/03/04 01:26:13;;;;;;;;;;;;;;;;;;2072816;28;19924;-83
2022/03/04 01:27:14;;;;;;;;;;;;;;;;;;2072946;28;19913;-83
2022/03/04 01:28:14;;;;;;;;;;;;;;;;;;2081504;28;20464;-83
2022/03/04 01:29:22;;;;;;;;;;;;;;;;;;2081556;28;19948;-84
2022/03/04 01:30:22;;;;;;;;;;;;;;;;;;2083300;28;20337;-84
2022/03/04 01:31:25;;;;;;;;;;;;;;;;;;2081492;28;19914;-84
2022/03/04 01:32:25;;;;;;;;;;;;;;;;;;2072848;28;20015;-85
2022/03/04 01:33:26;;;;;;;;;;;;;;;;;;2073048;28;19914;-84
2022/03/04 01:34:26;;;;;;;;;;;;;;;;;;2081385;28;19914;-83
2022/03/04 01:35:26;;;;;;;;;;;;;;;;;;2081512;28;19967;-83
2022/03/04 01:36:32;;;;;;;;;;;;;;;;;;2072728;28;19917;-84
2022/03/04 01:37:32;;;;;;;;;;;;;;;;;;2076390;28;20381;-84
2022/03/04 01:38:33;;;;;;;;;;;;;;;;;;2081458;28;19938;-83
2022/03/04 01:39:33;;;;;;;;;;;;;;;;;;2081400;28;19913;-85
2022/03/04 01:40:33;;;;;;;;;;;;;;;;;;2081534;28;19979;-84
2022/03/04 01:41:34;;;;;;;;;;;;;;;;;;2081442;28;19971;-84
2022/03/04 01:42:35;;;;;;;;;;;;;;;;;;2072752;28;19913;-84
2022/03/04 01:43:35;;;;;;;;;;;;;;;;;;2072934;28;19960;-84
2022/03/04 01:44:36;;;;;;;;;;;;;;;;;;2081454;28;19913;-83
2022/03/04 01:45:36;;;;;;;;;;;;;;;;;;2081474;28;20345;-84
2022/03/04 01:46:36;;;;;;;;;;;;;;;;;;2081473;28;19913;-85
2022/03/04 01:47:40;;;;;;;;;;;;;;;;;;2072702;28;20000;-85
2022/03/04 01:48:41;;;;;;;;;;;;;;;;;;2073487;28;20020;-85
2022/03/04 01:49:41;;;;;;;;;;;;;;;;;;2081411;28;19913;-85
2022/03/04 01:50:42;;;;;;;;;;;;;;;;;;2072863;28;19944;-85
2022/03/04 01:51:42;;;;;;;;;;;;;;;;;;2072868;28;19914;-85
2022/03/04 01:52:42;;;;;;;;;;;;;;;;;;2072693;28;19913;-86
2022/03/04 01:53:43;;;;;;;;;;;;;;;;;;2072785;28;20382;-85
2022/03/04 01:54:43;;;;;;;;;;;;;;;;;;2072837;28;19925;-83
2022/03/04 01:55:44;;;;;;;;;;;;;;;;;;2072678;28;19914;-84
2022/03/04 01:56:44;;;;;;;;;;;;;;;;;;2072762;28;19925;-83
2022/03/04 01:57:45;;;;;;;;;;;;;;;;;;2072754;28;19992;-84
2022/03/04 01:58:45;;;;;;;;;;;;;;;;;;2081434;28;19913;-84
2022/03/04 01:59:46;;;;;;;;;;;;;;;;;;2081444;28;19917;-84
2022/03/04 02:00:46;;;;;;;;;;;;;;;;;;2082464;28;19913;-85
2022/03/04 02:01:47;;;;;;;;;;;;;;;;;;2082411;28;19914;-84
2022/03/04 02:02:47;;;;;;;;;;;;;;;;;;2081366;28;19917;-85
2022/03/04 02:03:48;;;;;;;;;;;;;;;;;;2072657;28;19996;-83
2022/03/04 02:04:49;;;;;;;;;;;;;;;;;;2072884;28;19925;-84
2022/03/04 02:05:49;;;;;;;;;;;;;;;;;;2081316;28;19924;-84
2022/03/04 02:06:50;;;;;;;;;;;;;;;;;;2081310;28;19924;-83
2022/03/04 02:07:50;;;;;;;;;;;;;;;;;;2081275;28;20329;-83
2022/03/04 02:08:51;;;;;;;;;;;;;;;;;;2081389;28;19913;-84
2022/03/04 02:09:51;;;;;;;;;;;;;;;;;;2082467;28;19956;-83
2022/03/04 02:10:51;;;;;;;;;;;;;;;;;;2082875;28;19917;-85
2022/03/04 02:11:52;;;;;;;;;;;;;;;;;;2074233;28;20329;-84
2022/03/04 02:12:52;;;;;;;;;;;;;;;;;;2074331;28;19959;-85
2022/03/04 02:13:53;;;;;;;;;;;;;;;;;;2074279;28;19913;-85
2022/03/04 02:14:53;;;;;;;;;;;;;;;;;;2074276;28;20020;-85
2022/03/04 02:15:54;;;;;;;;;;;;;;;;;;2082754;28;19913;-85
2022/03/04 02:16:56;;;;;;;;;;;;;;;;;;2082854;28;19982;-84
2022/03/04 02:17:57;;;;;;;;;;;;;;;;;;2082867;28;19913;-84
2022/03/04 02:18:57;;;;;;;;;;;;;;;;;;2082783;28;19920;-84
2022/03/04 02:19:58;;;;;;;;;;;;;;;;;;2074252;28;19999;-85
2022/03/04 02:21:00;;;;;;;;;;;;;;;;;;2074235;28;19964;-84
2022/03/04 02:22:02;;;;;;;;;;;;;;;;;;2082866;28;19913;-83
2022/03/04 02:23:02;;;;;;;;;;;;;;;;;;2082861;28;19913;-84
2022/03/04 02:24:04;;;;;;;;;;;;;;;;;;2074211;28;19913;-84
2022/03/04 02:25:05;;;;;;;;;;;;;;;;;;2074227;28;19925;-83
2022/03/04 02:26:08;;;;;;;;;;;;;;;;;;2082921;28;19914;-84
2022/03/04 02:27:08;;;;;;;;;;;;;;;;;;2073979;28;19913;-84
2022/03/04 02:28:13;;;;;;;;;;;;;;;;;;2065905;28;19972;-84
2022/03/04 02:29:13;;;;;;;;;;;;;;;;;;2073912;28;19913;-84
2022/03/04 02:30:14;;;;;;;;;;;;;;;;;;2074169;28;20271;-84
2022/03/04 02:31:23;;;;;;;;;;;;;;;;;;2082560;28;20373;-84
2022/03/04 02:32:23;;;;;;;;;;;;;;;;;;2082833;28;19982;-84
2022/03/04 02:33:24;;;;;;;;;;;;;;;;;;2082715;28;20361;-84
2022/03/04 02:34:26;;;;;;;;;;;;;;;;;;2082708;28;20030;-84
2022/03/04 02:35:27;;;;;;;;;;;;;;;;;;2082542;28;19921;-84
2022/03/04 02:36:32;;;;;;;;;;;;;;;;;;2082723;28;20008;-85
2022/03/04 02:37:33;;;;;;;;;;;;;;;;;;2073912;28;19924;-85
2022/03/04 02:38:33;;;;;;;;;;;;;;;;;;2065898;28;19947;-83
2022/03/04 02:39:34;;;;;;;;;;;;;;;;;;2073945;28;20267;-84
2022/03/04 02:40:34;;;;;;;;;;;;;;;;;;2073935;28;19956;-84
2022/03/04 02:41:35;;;;;;;;;;;;;;;;;;2073909;28;20004;-84
2022/03/04 02:42:35;;;;;;;;;;;;;;;;;;2073943;28;19925;-84
2022/03/04 02:43:37;;;;;;;;;;;;;;;;;;2074044;28;19948;-84
2022/03/04 02:44:38;;;;;;;;;;;;;;;;;;2082709;28;19921;-84
2022/03/04 02:45:38;;;;;;;;;;;;;;;;;;2082529;28;19913;-84
2022/03/04 02:46:39;;;;;;;;;;;;;;;;;;2082724;28;19971;-84
2022/03/04 02:47:39;;;;;;;;;;;;;;;;;;2082399;28;19920;-84
2022/03/04 02:48:40;;;;;;;;;;;;;;;;;;2082611;28;20426;-84
2022/03/04 02:49:40;;;;;;;;;;;;;;;;;;2082533;28;19917;-84
2022/03/04 02:50:40;;;;;;;;;;;;;;;;;;2082586;28;19913;-84
2022/03/04 02:51:41;;;;;;;;;;;;;;;;;;2082549;28;19923;-84
2022/03/04 02:52:41;;;;;;;;;;;;;;;;;;2082629;28;19913;-84
2022/03/04 02:53:41;;;;;;;;;;;;;;;;;;2082562;28;20361;-84
2022/03/04 02:54:42;;;;;;;;;;;;;;;;;;2082520;28;19974;-84
2022/03/04 02:55:42;;;;;;;;;;;;;;;;;;2082506;28;19921;-84
2022/03/04 02:56:42;;;;;;;;;;;;;;;;;;2082479;28;20281;-84
2022/03/04 02:57:45;;;;;;;;;;;;;;;;;;2082640;28;19916;-84
2022/03/04 02:58:46;;;;;;;;;;;;;;;;;;2082291;28;19914;-84
2022/03/04 02:59:46;;;;;;;;;;;;;;;;;;2082455;28;20055;-84
2022/03/04 03:00:46;;;;;;;;;;;;;;;;;;2073713;28;19963;-84
2022/03/04 03:01:47;;;;;;;;;;;;;;;;;;2073848;28;19924;-84
2022/03/04 03:02:47;;;;;;;;;;;;;;;;;;2073702;28;20281;-84
2022/03/04 03:03:47;;;;;;;;;;;;;;;;;;2065638;28;19957;-84
2022/03/04 03:04:47;;;;;;;;;;;;;;;;;;2073767;28;20036;-84
2022/03/04 03:05:48;;;;;;;;;;;;;;;;;;2073775;28;19924;-84
2022/03/04 03:06:48;;;;;;;;;;;;;;;;;;2065694;28;20405;-83
2022/03/04 03:07:48;;;;;;;;;;;;;;;;;;2073689;28;19917;-84
2022/03/04 03:08:49;;;;;;;;;;;;;;;;;;2082385;28;19928;-84
2022/03/04 03:09:49;;;;;;;;;;;;;;;;;;2082406;28;19915;-84
2022/03/04 03:10:49;;;;;;;;;;;;;;;;;;2073757;28;19913;-84
2022/03/04 03:11:50;;;;;;;;;;;;;;;;;;2073788;28;20008;-84
2022/03/04 03:12:51;;;;;;;;;;;;;;;;;;2082315;28;19917;-84
2022/03/04 03:13:55;;;;;;;;;;;;;;;;;;2073780;28;19913;-84
2022/03/04 03:14:56;;;;;;;;;;;;;;;;;;2074336;28;19917;-84
2022/03/04 03:15:58;;;;;;;;;;;;;;;;;;2082212;28;19913;-84
2022/03/04 03:16:59;;;;;;;;;;;;;;;;;;2082414;28;20019;-85
2022/03/04 03:17:59;;;;;;;;;;;;;;;;;;2082468;28;20385;-84
2022/03/04 03:18:59;;;;;;;;;;;;;;;;;;2073619;28;20341;-84
2022/03/04 03:19:59;;;;;;;;;;;;;;;;;;2073728;28;19945;-85
2022/03/04 03:21:00;;;;;;;;;;;;;;;;;;2081336;28;19948;-84
2022/03/04 03:22:00;;;;;;;;;;;;;;;;;;2073458;28;19928;-84
2022/03/04 03:23:01;;;;;;;;;;;;;;;;;;2073740;28;19913;-84
2022/03/04 03:24:01;;;;;;;;;;;;;;;;;;2073505;28;19972;-84
2022/03/04 03:25:05;;;;;;;;;;;;;;;;;;2065511;28;19980;-85
2022/03/04 03:26:06;;;;;;;;;;;;;;;;;;2074120;28;19913;-84
2022/03/04 03:27:06;;;;;;;;;;;;;;;;;;2082250;28;19913;-84
2022/03/04 03:28:07;;;;;;;;;;;;;;;;;;2082197;28;20344;-84
2022/03/04 03:29:08;;;;;;;;;;;;;;;;;;2073533;28;20302;-84
2022/03/04 03:30:09;;;;;;;;;;;;;;;;;;2073575;28;19913;-84
2022/03/04 03:31:09;;;;;;;;;;;;;;;;;;2073663;28;19955;-85
2022/03/04 03:32:13;;;;;;;;;;;;;;;;;;2082215;28;20334;-84
2022/03/04 03:33:13;;;;;;;;;;;;;;;;;;2073698;28;19921;-84
2022/03/04 03:34:15;;;;;;;;;;;;;;;;;;2073562;28;19921;-84
2022/03/04 03:35:16;;;;;;;;;;;;;;;;;;2073471;28;20012;-84
2022/03/04 03:36:20;;;;;;;;;;;;;;;;;;2073551;28;19923;-84
2022/03/04 03:37:20;;;;;;;;;;;;;;;;;;2082308;28;19917;-84
2022/03/04 03:38:22;;;;;;;;;;;;;;;;;;2073519;28;19949;-84
2022/03/04 03:39:22;;;;;;;;;;;;;;;;;;2065399;28;19921;-83
2022/03/04 03:40:22;;;;;;;;;;;;;;;;;;2065408;28;20446;-83
2022/03/04 03:41:22;;;;;;;;;;;;;;;;;;2065376;28;19929;-83
2022/03/04 03:42:25;;;;;;;;;;;;;;;;;;2073330;28;20438;-83
2022/03/04 03:43:25;;;;;;;;;;;;;;;;;;2073886;28;19913;-83
2022/03/04 03:44:26;;;;;;;;;;;;;;;;;;2073323;28;20389;-84
2022/03/04 03:45:26;;;;;;;;;;;;;;;;;;2065386;28;20387;-84
2022/03/04 03:46:26;;;;;;;;;;;;;;;;;;2073463;28;20355;-84
2022/03/04 03:47:27;;;;;;;;;;;;;;;;;;2082287;28;19920;-84
2022/03/04 03:48:27;;;;;;;;;;;;;;;;;;2082015;28;20368;-84
2022/03/04 03:49:27;;;;;;;;;;;;;;;;;;2082180;28;19924;-84
2022/03/04 03:50:27;;;;;;;;;;;;;;;;;;2073065;28;19913;-84
2022/03/04 03:51:28;;;;;;;;;;;;;;;;;;2065340;28;19924;-84
2022/03/04 03:52:28;;;;;;;;;;;;;;;;;;2073437;28;20371;-84
2022/03/04 03:53:28;;;;;;;;;;;;;;;;;;2073399;28;19956;-84
2022/03/04 03:54:29;;;;;;;;;;;;;;;;;;2073410;28;19933;-84
2022/03/04 03:55:29;;;;;;;;;;;;;;;;;;2081963;28;19913;-84
2022/03/04 03:56:29;;;;;;;;;;;;;;;;;;2073230;28;19926;-84
2022/03/04 03:57:30;;;;;;;;;;;;;;;;;;2073502;28;20259;-84
2022/03/04 03:58:30;;;;;;;;;;;;;;;;;;2073208;28;19953;-84
2022/03/04 03:59:33;;;;;;;;;;;;;;;;;;2073420;28;19917;-83
2022/03/04 04:00:36;;;;;;;;;;;;;;;;;;2073232;28;19914;-84
2022/03/04 04:01:38;;;;;;;;;;;;;;;;;;2073923;28;19913;-83
2022/03/04 04:02:41;;;;;;;;;;;;;;;;;;2073348;28;19914;-82
2022/03/04 04:03:42;;;;;;;;;;;;;;;;;;2065666;28;19913;-83
2022/03/04 04:04:46;;;;;;;;;;;;;;;;;;2073419;28;20289;-84
2022/03/04 04:05:49;;;;;;;;;;;;;;;;;;2065513;28;20310;-83
2022/03/04 04:06:53;;;;;;;;;;;;;;;;;;2065452;28;19914;-83
2022/03/04 04:07:55;;;;;;;;;;;;;;;;;;2065449;28;19918;-84
2022/03/04 04:08:59;;;;;;;;;;;;;;;;;;2073582;28;20000;-84
2022/03/04 04:10:02;;;;;;;;;;;;;;;;;;2082100;28;19913;-84
2022/03/04 04:11:12;;;;;;;;;;;;;;;;;;2082084;28;19913;-83
2022/03/04 04:12:23;;;;;;;;;;;;;;;;;;;;;
2022/03/04 04:13:26;;;;;;;;;;;;;;;;;;2076584;28;19913;-84
2022/03/04 04:14:34;;;;;;;;;;;;;;;;;;2082060;28;19913;-84
2022/03/04 04:15:34;;;;;;;;;;;;;;;;;;2081865;28;19913;-84
2022/03/04 04:16:35;;;;;;;;;;;;;;;;;;2081866;28;20014;-83
2022/03/04 04:17:38;;;;;;;;;;;;;;;;;;2073245;28;20031;-84
2022/03/04 04:18:59;;;;;;;;;;;;;;;;;;2073630;28;20039;-85
2022/03/04 04:20:01;;;;;;;;;;;;;;;;;;2081308;28;20373;-85
2022/03/04 04:21:12;;;;;;;;;;;;;;;;;;2073326;28;20301;-84
2022/03/04 04:22:12;;;;;;;;;;;;;;;;;;2075480;28;19993;-84
2022/03/04 04:23:13;;;;;;;;;;;;;;;;;;2081943;28;19916;-84
2022/03/04 04:24:16;;;;;;;;;;;;;;;;;;2081737;28;20370;-84
2022/03/04 04:25:16;;;;;;;;;;;;;;;;;;2081634;28;20269;-84
2022/03/04 04:26:17;;;;;;;;;;;;;;;;;;2081837;28;19924;-84
2022/03/04 04:27:19;;;;;;;;;;;;;;;;;;2081847;28;20362;-84
2022/03/04 04:28:22;;;;;;;;;;;;;;;;;;2073031;28;19929;-84
2022/03/04 04:29:28;;;;;;;;;;;;;;;;;;2073401;28;19913;-84
2022/03/04 04:30:30;;;;;;;;;;;;;;;;;;2073081;28;20271;-84
2022/03/04 04:31:33;;;;;;;;;;;;;;;;;;2065067;28;19914;-84
2022/03/04 04:32:33;;;;;;;;;;;;;;;;;;2073218;28;19914;-84
2022/03/04 04:33:36;;;;;;;;;;;;;;;;;;2081735;28;19928;-83
2022/03/04 04:34:36;;;;;;;;;;;;;;;;;;2081537;28;19989;-83
2022/03/04 04:35:36;;;;;;;;;;;;;;;;;;2081719;28;19913;-84
2022/03/04 04:36:54;;;;;;;;;;;;;;;;;;2081860;28;20331;-83
2022/03/04 04:37:54;;;;;;;;;;;;;;;;;;2081676;28;20016;-84
2022/03/04 04:38:55;;;;;;;;;;;;;;;;;;2081635;28;19913;-84
2022/03/04 04:39:58;;;;;;;;;;;;;;;;;;2073044;28;20016;-84
2022/03/04 04:41:08;;;;;;;;;;;;;;;;;;2065212;28;19913;-84
2022/03/04 04:42:11;;;;;;;;;;;;;;;;;;2077149;28;19924;-84
2022/03/04 04:43:12;;;;;;;;;;;;;;;;;;2081663;28;19913;-83
2022/03/04 04:44:12;;;;;;;;;;;;;;;;;;2073014;28;20291;-83
2022/03/04 04:45:15;;;;;;;;;;;;;;;;;;2073062;28;19975;-83
2022/03/04 04:46:15;;;;;;;;;;;;;;;;;;2072979;28;19914;-84
2022/03/04 04:47:16;;;;;;;;;;;;;;;;;;2072772;28;20354;-84
2022/03/04 04:48:17;;;;;;;;;;;;;;;;;;2081636;28;19927;-84
2022/03/04 04:49:17;;;;;;;;;;;;;;;;;;2072982;28;20023;-84
2022/03/04 04:50:18;;;;;;;;;;;;;;;;;;2072971;28;20341;-85
2022/03/04 04:51:18;;;;;;;;;;;;;;;;;;2081501;28;19917;-84
2022/03/04 04:52:26;;;;;;;;;;;;;;;;;;2072787;28;19917;-84
2022/03/04 04:53:29;;;;;;;;;;;;;;;;;;2073931;28;20421;-85
2022/03/04 04:54:29;;;;;;;;;;;;;;;;;;2081674;28;20357;-84
2022/03/04 04:55:32;;;;;;;;;;;;;;;;;;2081525;28;19944;-84
2022/03/04 04:56:35;;;;;;;;;;;;;;;;;;2072712;28;20370;-84
2022/03/04 04:57:36;;;;;;;;;;;;;;;;;;2073531;28;20000;-83
2022/03/04 04:58:39;;;;;;;;;;;;;;;;;;2082152;28;19913;-82
2022/03/04 05:01:02;;;;;;;;;;;;;;;;;;2081782;28;19953;-84
2022/03/04 05:02:03;;;;;;;;;;;;;;;;;;2072928;28;20364;-84
2022/03/04 05:03:13;;;;;;;;;;;;;;;;;;2072903;28;19913;-84
2022/03/04 05:04:16;;;;;;;;;;;;;;;;;;2084152;28;19917;-84
2022/03/04 05:05:16;;;;;;;;;;;;;;;;;;2081430;28;19974;-84
2022/03/04 05:06:17;;;;;;;;;;;;;;;;;;2072776;28;19914;-83
2022/03/04 05:07:20;;;;;;;;;;;;;;;;;;2073084;28;19925;-83
2022/03/04 05:08:30;;;;;;;;;;;;;;;;;;2081439;28;19925;-84
2022/03/04 05:09:33;;;;;;;;;;;;;;;;;;2084248;28;19913;-84
2022/03/04 05:10:40;;;;;;;;;;;;;;;;;;2081771;28;19974;-84
2022/03/04 05:11:50;;;;;;;;;;;;;;;;;;2081575;28;19960;-83
2022/03/04 05:12:51;;;;;;;;;;;;;;;;;;2084340;28;19928;-84
2022/03/04 05:13:53;;;;;;;;;;;;;;;;;;2072774;28;20068;-84
2022/03/04 05:15:04;;;;;;;;;;;;;;;;;;2073221;28;19925;-84
2022/03/04 05:16:04;;;;;;;;;;;;;;;;;;2081984;28;19912;-84
2022/03/04 05:17:07;;;;;;;;;;;;;;;;;;2081511;28;19913;-84
2022/03/04 05:18:11;;;;;;;;;;;;;;;;;;2081501;28;19925;-85
2022/03/04 05:19:11;;;;;;;;;;;;;;;;;;2081555;28;19913;-85
2022/03/04 05:20:16;;;;;;;;;;;;;;;;;;2081465;28;20388;-84
2022/03/04 05:21:19;;;;;;;;;;;;;;;;;;2081702;28;19929;-84
2022/03/04 05:22:20;;;;;;;;;;;;;;;;;;2072886;28;19924;-84
2022/03/04 05:24:41;;;;;;;;;;;;;;;;;;2081551;28;19913;-84
2022/03/04 05:25:44;;;;;;;;;;;;;;;;;;2072748;28;19982;-84
2022/03/04 05:26:45;;;;;;;;;;;;;;;;;;2065025;28;19984;-84
2022/03/04 05:27:45;;;;;;;;;;;;;;;;;;2072793;28;20020;-84
2022/03/04 05:28:46;;;;;;;;;;;;;;;;;;2081458;28;19917;-84
2022/03/04 05:29:46;;;;;;;;;;;;;;;;;;2081333;28;19924;-84
2022/03/04 05:30:49;;;;;;;;;;;;;;;;;;2081392;28;20493;-84
2022/03/04 05:31:49;;;;;;;;;;;;;;;;;;2081383;28;19913;-84
2022/03/04 05:32:50;;;;;;;;;;;;;;;;;;2081273;28;19917;-84
2022/03/04 05:33:50;;;;;;;;;;;;;;;;;;2082102;28;19964;-84
2022/03/04 05:34:54;;;;;;;;;;;;;;;;;;2081273;28;20019;-84
2022/03/04 05:35:54;;;;;;;;;;;;;;;;;;2081408;28;19948;-84
2022/03/04 05:36:55;;;;;;;;;;;;;;;;;;2072913;28;19924;-84
2022/03/04 05:37:55;;;;;;;;;;;;;;;;;;2064858;28;19953;-84
2022/03/04 05:38:55;;;;;;;;;;;;;;;;;;2072868;28;19918;-83
2022/03/04 05:39:56;;;;;;;;;;;;;;;;;;2072698;28;19913;-85
2022/03/04 05:41:01;;;;;;;;;;;;;;;;;;2064605;28;19917;-76
2022/03/04 05:42:02;;;;;;;;;;;;;;;;;;2057866;28;19925;-76
2022/03/04 05:43:02;;;;;;;;;;;;;;;;;;2072750;28;19952;-76
2022/03/04 05:44:05;;;;;;;;;;;;;;;;;;2081130;28;20290;-77
2022/03/04 05:45:08;;;;;;;;;;;;;;;;;;2082858;28;19913;-77
2022/03/04 05:46:08;;;;;;;;;;;;;;;;;;2074162;28;19991;-77
2022/03/04 05:47:09;;;;;;;;;;;;;;;;;;2074448;28;20436;-78
2022/03/04 05:48:09;;;;;;;;;;;;;;;;;;2082766;28;20329;-77
2022/03/04 05:49:12;;;;;;;;;;;;;;;;;;2082918;28;19913;-77
2022/03/04 05:50:14;;;;;;;;;;;;;;;;;;2074166;28;19948;-77
2022/03/04 05:51:14;;;;;;;;;;;;;;;;;;2066115;28;19914;-78
2022/03/04 05:52:18;;;;;;;;;;;;;;;;;;2074212;28;20302;-77
2022/03/04 05:53:18;;;;;;;;;;;;;;;;;;2082921;28;19996;-77
2022/03/04 05:54:18;;;;;;;;;;;;;;;;;;2074072;28;20366;-76
2022/03/04 05:55:19;;;;;;;;;;;;;;;;;;2074213;28;19920;-77
2022/03/04 05:56:25;;;;;;;;;;;;;;;;;;2073965;28;19982;-76
2022/03/04 05:57:25;;;;;;;;;;;;;;;;;;2075078;28;20082;-77
2022/03/04 05:58:34;;;;;;;;;;;;;;;;;;2082801;28;20000;-77
2022/03/04 05:59:35;;;;;;;;;;;;;;;;;;2082827;28;19912;-76
2022/03/04 06:00:35;;;;;;;;;;;;;;;;;;2082773;28;19992;-77
2022/03/04 06:01:35;;;;;;;;;;;;;;;;;;2082916;28;19920;-76
2022/03/04 06:02:35;;;;;;;;;;;;;;;;;;2074139;28;20350;-77
2022/03/04 06:03:36;;;;;;;;;;;;;;;;;;2066120;28;19997;-77
2022/03/04 06:04:39;;;;;;;;;;;;;;;;;;2074210;28;19914;-78
2022/03/04 06:05:39;;;;;;;;;;;;;;;;;;2082815;28;19917;-76
2022/03/04 06:06:44;;;;;;;;;;;;;;;;;;2074101;28;19914;-77
2022/03/04 06:07:47;;;;;;;;;;;;;;;;;;2074111;28;20002;-79
2022/03/04 06:08:48;;;;;;;;;;;;;;;;;;2066130;28;20035;-78
2022/03/04 06:09:48;;;;;;;;;;;;;;;;;;2066109;28;19913;-78
2022/03/04 06:11:00;;;;;;;;;;;;;;;;;;2074109;28;19914;-78
2022/03/04 06:12:09;;;;;;;;;;;;;;;;;;2085589;28;19917;-76
2022/03/04 06:13:11;;;;;;;;;;;;;;;;;;2073689;28;19923;-78
2022/03/04 06:14:24;;;;;;;;;;;;;;;;;;;;;
2022/03/04 06:15:32;;;;;;;;;;;;;;;;;;2071869;28;20282;-78
2022/03/04 06:16:34;;;;;;;;;;;;;;;;;;2073879;28;20095;-78
2022/03/04 06:17:36;;;;;;;;;;;;;;;;;;2065935;28;20390;-77
2022/03/04 06:18:39;;;;;;;;;;;;;;;;;;2074367;28;19922;-78
2022/03/04 06:19:45;;;;;;;;;;;;;;;;;;2074144;28;19949;-77
2022/03/04 06:20:51;;;;;;;;;;;;;;;;;;2066319;28;19922;-78
2022/03/04 06:21:53;;;;;;;;;;;;;;;;;;2074911;28;20056;-78
2022/03/04 06:23:01;;;;;;;;;;;;;;;;;;2082626;28;20346;-78
2022/03/04 06:24:02;;;;;;;;;;;;;;;;;;2085472;28;20365;-78
2022/03/04 06:25:05;;;;;;;;;;;;;;;;;;2082657;28;19913;-78
2022/03/04 06:26:06;;;;;;;;;;;;;;;;;;2082760;28;19913;-78
2022/03/04 06:27:19;;;;;;;;;;;;;;;;;;2082642;28;20262;-78
2022/03/04 06:28:26;;;;;;;;;;;;;;;;;;2085317;28;19968;-78
2022/03/04 06:29:26;;;;;;;;;;;;;;;;;;2073570;28;19960;-78
2022/03/04 06:30:28;;;;;;;;;;;;;;;;;;2065857;28;19913;-78
2022/03/04 06:31:28;;;;;;;;;;;;;;;;;;2073928;28;19917;-77
2022/03/04 06:32:36;;;;;;;;;;;;;;;;;;2074072;28;19921;-77
2022/03/04 06:33:38;;;;;;;;;;;;;;;;;;2073547;28;20020;-78
2022/03/04 06:34:48;;;;;;;;;;;;;;;;;;2074340;28;19913;-78
2022/03/04 06:36:15;;;;;;;;;;;;;;;;;;2083711;28;20333;-77
2022/03/04 06:37:15;;;;;;;;;;;;;;;;;;2085462;28;19924;-79
2022/03/04 06:38:26;;;;;;;;;;;;;;;;;;2082503;28;19971;-77
2022/03/04 06:39:27;;;;;;;;;;;;;;;;;;2073817;28;20067;-77
2022/03/04 06:40:39;;;;;;;;;;;;;;;;;;2074110;28;20337;-77
2022/03/04 06:41:39;;;;;;;;;;;;;;;;;;2085049;28;19924;-77
2022/03/04 06:42:42;;;;;;;;;;;;;;;;;;2082577;28;19959;-77
2022/03/04 06:43:51;;;;;;;;;;;;;;;;;;2073838;28;20270;-77
2022/03/04 06:44:54;;;;;;;;;;;;;;;;;;2075905;28;19965;-77
2022/03/04 06:45:55;;;;;;;;;;;;;;;;;;2082533;28;20361;-77
2022/03/04 06:46:55;;;;;;;;;;;;;;;;;;2082533;28;19922;-77
2022/03/04 06:48:06;;;;;;;;;;;;;;;;;;2073724;28;19923;-77
2022/03/04 06:49:10;;;;;;;;;;;;;;;;;;2067232;28;19910;-77
2022/03/04 06:50:10;;;;;;;;;;;;;;;;;;2074355;28;19923;-77
2022/03/04 06:51:10;;;;;;;;;;;;;;;;;;2082470;28;19917;-78
2022/03/04 06:52:11;;;;;;;;;;;;;;;;;;2082438;28;19917;-78
2022/03/04 06:53:13;;;;;;;;;;;;;;;;;;2073741;28;19948;-78
2022/03/04 06:54:16;;;;;;;;;;;;;;;;;;2074185;28;20280;-78
2022/03/04 06:55:19;;;;;;;;;;;;;;;;;;2073587;28;19921;-78
2022/03/04 06:56:19;;;;;;;;;;;;;;;;;;2073996;28;20008;-78
2022/03/04 06:57:22;;;;;;;;;;;;;;;;;;2082442;28;19923;-78
2022/03/04 06:58:22;;;;;;;;;;;;;;;;;;2073530;28;19971;-78
2022/03/04 06:59:26;;;;;;;;;;;;;;;;;;2073735;28;20420;-78
2022/03/04 07:00:27;;;;;;;;;;;;;;;;;;2073591;28;19973;-78
2022/03/04 07:01:27;;;;;;;;;;;;;;;;;;2073627;28;20390;-78
2022/03/04 07:02:27;;;;;;;;;;;;;;;;;;2073591;28;19940;-78
2022/03/04 07:03:30;;;;;;;;;;;;;;;;;;2065366;28;19925;-78
2022/03/04 07:04:30;;;;;;;;;;;;;;;;;;2074020;28;19917;-78